createdAt,value
2022-09-17T00:01:44.738Z,15.47
2022-09-17T00:04:11.949Z,15.57
2022-09-17T00:06:41.483Z,15.48
2022-09-17T00:09:11.673Z,15.40
2022-09-17T00:11:42.894Z,15.52
2022-09-17T00:14:16.609Z,15.53
2022-09-17T00:16:46.872Z,15.47
2022-09-17T00:19:20.209Z,15.45
2022-09-17T00:21:47.543Z,15.52
2022-09-17T00:24:16.697Z,15.36
2022-09-17T00:26:44.115Z,15.25
2022-09-17T00:29:12.082Z,15.27
2022-09-17T00:31:39.336Z,15.13
2022-09-17T00:34:09.406Z,15.08
2022-09-17T00:36:38.369Z,15.09
2022-09-17T00:39:09.862Z,15.00
2022-09-17T00:41:41.803Z,15.10
2022-09-17T00:44:50.837Z,15.18
2022-09-17T00:47:31.479Z,15.24
2022-09-17T00:50:06.194Z,15.26
2022-09-17T00:52:44.234Z,15.19
2022-09-17T00:55:17.876Z,15.23
2022-09-17T00:57:45.992Z,15.39
2022-09-17T01:00:15.660Z,15.29
2022-09-17T01:02:44.047Z,15.13
2022-09-17T01:05:13.038Z,15.10
2022-09-17T01:07:59.243Z,15.29
2022-09-17T01:10:50.184Z,15.49
2022-09-17T01:13:54.844Z,15.41
2022-09-17T01:16:56.768Z,15.49
2022-09-17T01:19:54.499Z,15.17
2022-09-17T01:22:52.147Z,15.31
2022-09-17T01:25:38.574Z,15.16
2022-09-17T01:28:20.407Z,15.04
2022-09-17T01:31:11.663Z,14.99
2022-09-17T01:33:52.795Z,14.91
2022-09-17T01:36:46.695Z,14.89
2022-09-17T01:39:28.524Z,14.94
2022-09-17T01:42:01.163Z,14.87
2022-09-17T01:45:02.209Z,14.88
2022-09-17T01:47:36.443Z,14.82
2022-09-17T01:51:02.796Z,14.81
2022-09-17T01:53:57.881Z,14.91
2022-09-17T01:56:31.800Z,14.62
2022-09-17T01:59:22.351Z,14.62
2022-09-17T02:01:55.669Z,14.33
2022-09-17T02:04:37.429Z,14.41
2022-09-17T02:07:12.828Z,14.50
2022-09-17T02:10:09.732Z,14.35
2022-09-17T02:12:46.898Z,14.41
2022-09-17T02:15:25.086Z,14.33
2022-09-17T02:18:05.237Z,14.48
2022-09-17T02:20:45.202Z,14.43
2022-09-17T02:23:20.156Z,14.46
2022-09-17T02:26:11.544Z,14.58
2022-09-17T02:28:55.510Z,14.44
2022-09-17T02:31:22.907Z,14.28
2022-09-17T02:33:57.332Z,14.44
2022-09-17T02:36:25.047Z,14.48
2022-09-17T02:39:01.757Z,14.38
2022-09-17T02:42:10.408Z,14.21
2022-09-17T02:44:54.232Z,14.22
2022-09-17T02:47:58.182Z,14.19
2022-09-17T02:50:56.257Z,14.21
2022-09-17T02:53:58.349Z,14.16
2022-09-17T02:56:51.979Z,14.05
2022-09-17T02:59:58.770Z,14.19
2022-09-17T03:02:44.210Z,14.33
2022-09-17T03:05:16.635Z,14.09
2022-09-17T03:07:43.590Z,14.25
2022-09-17T03:10:13.604Z,14.18
2022-09-17T03:12:41.158Z,14.33
2022-09-17T03:15:11.892Z,14.41
2022-09-17T03:17:39.050Z,14.28
2022-09-17T03:20:08.976Z,14.33
2022-09-17T03:22:38.161Z,14.19
2022-09-17T03:25:08.135Z,14.28
2022-09-17T03:27:35.124Z,14.17
2022-09-17T03:30:02.178Z,14.20
2022-09-17T03:32:31.585Z,14.17
2022-09-17T03:34:58.454Z,14.32
2022-09-17T03:37:32.749Z,14.19
2022-09-17T03:40:00.057Z,14.15
2022-09-17T03:42:28.991Z,14.19
2022-09-17T03:44:57.063Z,14.21
2022-09-17T03:47:24.056Z,14.31
2022-09-17T03:49:53.027Z,14.15
2022-09-17T03:52:22.020Z,14.18
2022-09-17T03:54:49.278Z,14.25
2022-09-17T03:57:16.904Z,14.31
2022-09-17T03:59:47.347Z,13.98
2022-09-17T04:02:14.448Z,14.18
2022-09-17T04:04:43.648Z,14.16
2022-09-17T04:07:10.493Z,14.17
2022-09-17T04:09:37.492Z,14.10
2022-09-17T04:12:04.838Z,14.07
2022-09-17T04:14:33.927Z,14.15
2022-09-17T04:17:00.884Z,14.26
2022-09-17T04:19:27.959Z,14.13
2022-09-17T04:21:57.329Z,14.12
2022-09-17T04:24:24.372Z,14.26
2022-09-17T04:26:51.467Z,14.19
2022-09-17T04:29:20.622Z,14.28
2022-09-17T04:31:49.719Z,14.32
2022-09-17T04:34:16.583Z,14.31
2022-09-17T04:36:45.932Z,14.27
2022-09-17T04:39:13.009Z,14.17
2022-09-17T04:41:40.470Z,14.19
2022-09-17T04:44:09.947Z,14.20
2022-09-17T04:46:36.952Z,14.25
2022-09-17T04:49:06.470Z,14.38
2022-09-17T04:51:33.278Z,14.16
2022-09-17T04:54:02.906Z,14.20
2022-09-17T04:56:29.764Z,14.14
2022-09-17T04:58:58.871Z,14.37
2022-09-17T05:01:26.089Z,14.49
2022-09-17T05:04:00.470Z,14.38
2022-09-17T05:06:27.458Z,14.06
2022-09-17T05:09:00.463Z,14.09
2022-09-17T05:11:28.100Z,14.16
2022-09-17T05:13:55.477Z,14.16
2022-09-17T05:16:22.570Z,14.25
2022-09-17T05:18:51.609Z,14.19
2022-09-17T05:21:20.536Z,14.11
2022-09-17T05:23:48.445Z,14.22
2022-09-17T05:26:17.209Z,13.84
2022-09-17T05:28:44.347Z,13.99
2022-09-17T05:31:13.807Z,14.17
2022-09-17T05:33:40.986Z,14.07
2022-09-17T05:36:08.225Z,14.34
2022-09-17T05:38:35.250Z,14.46
2022-09-17T05:41:08.444Z,14.58
2022-09-17T05:43:35.363Z,14.23
2022-09-17T05:46:07.108Z,14.14
2022-09-17T05:48:34.265Z,14.47
2022-09-17T05:51:01.231Z,14.45
2022-09-17T05:53:31.597Z,14.33
2022-09-17T05:55:59.452Z,14.21
2022-09-17T05:58:34.464Z,14.19
2022-09-17T06:01:04.324Z,14.16
2022-09-17T06:03:31.126Z,14.26
2022-09-17T06:06:04.386Z,14.32
2022-09-17T06:08:31.396Z,14.39
2022-09-17T06:11:02.264Z,14.51
2022-09-17T06:13:29.380Z,14.33
2022-09-17T06:15:58.636Z,14.59
2022-09-17T06:18:25.584Z,14.60
2022-09-17T06:20:58.275Z,14.49
2022-09-17T06:23:25.559Z,14.58
2022-09-17T06:25:58.523Z,14.49
2022-09-17T06:28:29.440Z,14.65
2022-09-17T06:31:01.235Z,14.62
2022-09-17T06:33:28.694Z,14.57
2022-09-17T06:36:14.100Z,14.53
2022-09-17T06:38:44.717Z,14.59
2022-09-17T06:41:12.624Z,14.62
2022-09-17T06:43:42.588Z,14.51
2022-09-17T06:46:10.313Z,14.61
2022-09-17T06:48:40.643Z,14.62
2022-09-17T06:51:10.806Z,14.84
2022-09-17T06:53:41.596Z,14.87
2022-09-17T06:56:10.050Z,14.81
2022-09-17T06:58:38.355Z,14.60
2022-09-17T07:01:06.011Z,14.75
2022-09-17T07:03:33.865Z,15.15
2022-09-17T07:06:00.770Z,16.35
2022-09-17T07:08:34.781Z,17.34
2022-09-17T07:11:01.828Z,18.78
2022-09-17T07:13:28.649Z,19.75
2022-09-17T07:16:01.586Z,20.72
2022-09-17T07:18:29.318Z,21.56
2022-09-17T07:20:58.613Z,22.38
2022-09-17T07:23:33.362Z,23.77
2022-09-17T07:26:11.198Z,23.67
2022-09-17T07:28:41.131Z,22.86
2022-09-17T07:31:18.583Z,23.32
2022-09-17T07:33:47.972Z,23.99
2022-09-17T07:36:20.733Z,24.71
2022-09-17T07:38:47.686Z,24.73
2022-09-17T07:41:18.731Z,25.17
2022-09-17T07:43:50.192Z,25.72
2022-09-17T07:46:19.720Z,26.12
2022-09-17T07:48:48.081Z,26.18
2022-09-17T07:51:26.192Z,26.53
2022-09-17T07:53:54.739Z,26.45
2022-09-17T07:56:25.254Z,26.33
2022-09-17T07:58:52.881Z,25.73
2022-09-17T08:01:23.158Z,25.93
2022-09-17T08:03:56.878Z,23.44
2022-09-17T08:06:26.236Z,21.75
2022-09-17T08:08:53.197Z,20.89
2022-09-17T08:11:44.645Z,20.54
2022-09-17T08:14:13.316Z,20.90
2022-09-17T08:16:42.637Z,21.78
2022-09-17T08:19:10.985Z,21.25
2022-09-17T08:21:43.406Z,21.93
2022-09-17T08:24:10.384Z,21.32
2022-09-17T08:26:40.574Z,20.82
2022-09-17T08:29:11.251Z,20.96
2022-09-17T08:31:38.287Z,21.38
2022-09-17T08:34:11.241Z,22.26
2022-09-17T08:36:40.757Z,23.46
2022-09-17T08:39:08.228Z,24.61
2022-09-17T08:41:58.470Z,26.37
2022-09-17T08:44:35.838Z,28.11
2022-09-17T08:47:13.359Z,29.63
2022-09-17T08:49:59.004Z,28.49
2022-09-17T08:52:47.319Z,28.27
2022-09-17T08:55:35.145Z,26.78
2022-09-17T08:58:14.583Z,26.43
2022-09-17T09:01:01.054Z,28.02
2022-09-17T09:04:00.375Z,25.09
2022-09-17T09:06:36.281Z,22.49
2022-09-17T09:09:15.275Z,20.15
2022-09-17T09:11:43.650Z,19.58
2022-09-17T09:14:27.867Z,19.11
2022-09-17T09:16:56.901Z,19.30
2022-09-17T09:19:30.931Z,20.27
2022-09-17T09:22:25.371Z,23.61
2022-09-17T09:25:18.872Z,26.83
2022-09-17T09:28:29.966Z,28.82
2022-09-17T09:31:42.055Z,30.03
2022-09-17T09:34:10.570Z,30.33
2022-09-17T09:36:43.613Z,30.60
2022-09-17T09:39:24.359Z,30.05
2022-09-17T09:42:11.328Z,29.50
2022-09-17T09:44:38.741Z,30.14
2022-09-17T09:47:29.465Z,30.68
2022-09-17T09:50:08.172Z,31.57
2022-09-17T09:52:59.713Z,31.99
2022-09-17T09:55:51.346Z,31.84
2022-09-17T09:58:43.125Z,30.27
2022-09-17T10:01:17.242Z,29.43
2022-09-17T10:03:47.652Z,29.17
2022-09-17T10:06:18.376Z,29.46
2022-09-17T10:08:57.334Z,29.57
2022-09-17T10:11:30.539Z,30.74
2022-09-17T10:14:27.816Z,28.98
2022-09-17T10:17:26.703Z,25.60
2022-09-17T10:20:05.433Z,24.65
2022-09-17T10:22:39.506Z,26.11
2022-09-17T10:25:35.496Z,24.50
2022-09-17T10:28:24.921Z,23.45
2022-09-17T10:31:05.155Z,21.19
2022-09-17T10:33:37.356Z,20.78
2022-09-17T10:36:10.174Z,20.19
2022-09-17T10:38:46.452Z,20.16
2022-09-17T10:41:22.375Z,21.87
2022-09-17T10:43:50.592Z,23.48
2022-09-17T10:46:30.281Z,22.41
2022-09-17T10:49:11.568Z,22.10
2022-09-17T10:51:41.669Z,20.93
2022-09-17T10:55:05.752Z,20.39
2022-09-17T10:58:09.913Z,19.88
2022-09-17T11:00:58.029Z,19.09
2022-09-17T11:04:10.258Z,21.55
2022-09-17T11:07:01.854Z,21.82
2022-09-17T11:09:45.877Z,23.05
2022-09-17T11:12:20.977Z,25.02
2022-09-17T11:15:02.109Z,27.53
2022-09-17T11:17:59.590Z,28.10
2022-09-17T11:21:01.289Z,25.37
2022-09-17T11:24:05.655Z,22.87
2022-09-17T11:27:10.563Z,23.90
2022-09-17T11:30:20.783Z,21.89
2022-09-17T11:33:25.351Z,20.73
2022-09-17T11:36:11.988Z,21.10
2022-09-17T11:38:53.248Z,21.34
2022-09-17T11:41:41.900Z,19.18
2022-09-17T11:44:36.042Z,18.48
2022-09-17T11:47:22.136Z,17.79
2022-09-17T11:50:27.863Z,17.01
2022-09-17T11:53:37.885Z,16.30
2022-09-17T11:56:29.722Z,16.56
2022-09-17T11:59:37.275Z,17.15
2022-09-17T12:02:22.249Z,17.09
2022-09-17T12:05:08.010Z,17.69
2022-09-17T12:07:58.288Z,17.64
2022-09-17T12:11:00.230Z,17.95
2022-09-17T12:13:48.722Z,17.95
2022-09-17T12:16:33.528Z,17.74
2022-09-17T12:19:15.247Z,17.34
2022-09-17T12:21:54.219Z,16.96
2022-09-17T12:24:32.848Z,16.96
2022-09-17T12:27:25.747Z,17.74
2022-09-17T12:30:15.178Z,17.51
2022-09-17T12:33:11.986Z,16.96
2022-09-17T12:36:09.682Z,17.23
2022-09-17T12:38:45.661Z,16.93
2022-09-17T12:41:35.438Z,16.75
2022-09-17T12:44:36.350Z,16.93
2022-09-17T12:47:43.798Z,17.24
2022-09-17T12:50:32.205Z,17.00
2022-09-17T12:53:30.834Z,16.35
2022-09-17T12:56:49.548Z,16.69
2022-09-17T12:59:21.026Z,16.34
2022-09-17T13:02:15.711Z,16.58
2022-09-17T13:05:01.465Z,15.70
2022-09-17T13:07:43.196Z,16.10
2022-09-17T13:10:26.343Z,16.27
2022-09-17T13:13:25.133Z,15.95
2022-09-17T13:16:44.760Z,16.25
2022-09-17T13:19:40.123Z,15.74
2022-09-17T13:22:18.230Z,16.10
2022-09-17T13:25:02.393Z,16.28
2022-09-17T13:27:37.720Z,16.42
2022-09-17T13:30:11.147Z,16.58
2022-09-17T13:32:40.925Z,16.58
2022-09-17T13:35:13.763Z,16.71
2022-09-17T13:37:52.959Z,16.86
2022-09-17T13:40:28.278Z,17.09
2022-09-17T13:43:18.088Z,17.37
2022-09-17T13:46:00.192Z,19.00
2022-09-17T13:48:33.054Z,20.02
2022-09-17T13:51:34.950Z,22.68
2022-09-17T13:54:10.080Z,22.55
2022-09-17T13:56:54.780Z,23.81
2022-09-17T13:59:28.965Z,23.25
2022-09-17T14:02:04.996Z,22.07
2022-09-17T14:04:48.431Z,22.82
2022-09-17T14:07:31.169Z,22.32
2022-09-17T14:10:22.328Z,21.42
2022-09-17T14:12:56.217Z,20.99
2022-09-17T14:15:41.457Z,20.78
2022-09-17T14:18:28.461Z,22.20
2022-09-17T14:21:30.642Z,23.32
2022-09-17T14:24:02.405Z,24.83
2022-09-17T14:26:44.403Z,23.91
2022-09-17T14:29:58.263Z,22.94
2022-09-17T14:32:40.201Z,21.87
2022-09-17T14:35:43.084Z,20.91
2022-09-17T14:38:15.294Z,20.27
2022-09-17T14:40:54.659Z,20.70
2022-09-17T14:44:25.433Z,20.38
2022-09-17T14:47:00.731Z,19.27
2022-09-17T14:49:33.905Z,18.28
2022-09-17T14:52:02.384Z,18.44
2022-09-17T14:54:36.044Z,18.75
2022-09-17T14:57:09.362Z,18.55
2022-09-17T14:59:57.773Z,18.77
2022-09-17T15:02:32.076Z,19.00
2022-09-17T15:05:00.102Z,19.00
2022-09-17T15:07:29.895Z,19.27
2022-09-17T15:10:28.772Z,18.81
2022-09-17T15:12:56.040Z,18.70
2022-09-17T15:15:26.336Z,18.55
2022-09-17T15:17:54.621Z,18.30
2022-09-17T15:20:31.314Z,18.02
2022-09-17T15:23:22.613Z,17.86
2022-09-17T15:25:52.870Z,17.82
2022-09-17T15:28:37.058Z,17.59
2022-09-17T15:31:07.244Z,17.67
2022-09-17T15:33:38.828Z,17.63
2022-09-17T15:36:20.141Z,17.61
2022-09-17T15:38:47.222Z,17.30
2022-09-17T15:41:29.539Z,16.84
2022-09-17T15:44:36.335Z,16.91
2022-09-17T15:47:54.498Z,17.14
2022-09-17T15:50:24.820Z,17.31
2022-09-17T15:53:10.727Z,17.22
2022-09-17T15:55:43.742Z,16.97
2022-09-17T15:58:41.890Z,17.01
2022-09-17T16:01:18.257Z,16.88
2022-09-17T16:03:45.131Z,16.89
2022-09-17T16:06:18.127Z,16.68
2022-09-17T16:09:05.182Z,16.75
2022-09-17T16:11:32.889Z,16.81
2022-09-17T16:14:01.589Z,16.91
2022-09-17T16:16:32.458Z,16.69
2022-09-17T16:18:59.514Z,16.91
2022-09-17T16:21:26.424Z,16.75
2022-09-17T16:23:54.115Z,16.78
2022-09-17T16:26:25.307Z,16.90
2022-09-17T16:28:58.550Z,16.86
2022-09-17T16:31:28.176Z,16.74
2022-09-17T16:33:55.199Z,16.58
2022-09-17T16:36:24.798Z,16.69
2022-09-17T16:38:51.902Z,16.72
2022-09-17T16:41:19.007Z,16.48
2022-09-17T16:43:48.133Z,16.56
2022-09-17T16:46:15.469Z,16.52
2022-09-17T16:48:48.052Z,16.56
2022-09-17T16:51:15.049Z,16.55
2022-09-17T16:53:41.961Z,16.34
2022-09-17T16:56:17.586Z,16.27
2022-09-17T16:58:46.971Z,16.12
2022-09-17T17:01:16.456Z,16.23
2022-09-17T17:03:45.755Z,16.22
2022-09-17T17:06:22.852Z,15.88
2022-09-17T17:08:49.944Z,16.05
2022-09-17T17:11:16.831Z,16.00
2022-09-17T17:13:47.395Z,15.85
2022-09-17T17:16:15.307Z,15.79
2022-09-17T17:18:44.195Z,15.95
2022-09-17T17:21:16.324Z,15.82
2022-09-17T17:23:47.938Z,15.91
2022-09-17T17:26:18.486Z,15.77
2022-09-17T17:28:49.250Z,15.75
2022-09-17T17:31:16.314Z,15.68
2022-09-17T17:33:43.538Z,15.64
2022-09-17T17:36:10.768Z,15.69
2022-09-17T17:38:38.960Z,15.60
2022-09-17T17:41:15.040Z,15.54
2022-09-17T17:43:42.303Z,15.39
2022-09-17T17:46:14.845Z,15.56
2022-09-17T17:48:43.806Z,15.44
2022-09-17T17:51:13.598Z,15.56
2022-09-17T17:53:43.692Z,15.58
2022-09-17T17:56:13.978Z,15.60
2022-09-17T17:58:41.528Z,15.66
2022-09-17T18:01:19.665Z,15.60
2022-09-17T18:03:47.087Z,15.46
2022-09-17T18:06:14.548Z,15.36
2022-09-17T18:08:44.077Z,15.40
2022-09-17T18:11:11.959Z,15.57
2022-09-17T18:13:39.857Z,15.65
2022-09-17T18:16:11.583Z,15.58
2022-09-17T18:18:45.223Z,15.68
2022-09-17T18:21:18.210Z,15.66
2022-09-17T18:23:46.421Z,15.53
2022-09-17T18:26:18.526Z,15.64
2022-09-17T18:28:46.124Z,15.71
2022-09-17T18:31:26.121Z,15.80
2022-09-17T18:34:05.605Z,15.84
2022-09-17T18:36:37.361Z,15.81
2022-09-17T18:39:52.887Z,15.77
2022-09-17T18:41:55.002Z,15.59
2022-09-17T18:44:22.553Z,15.76
2022-09-17T18:46:51.193Z,15.65
2022-09-17T18:49:20.759Z,15.55
2022-09-17T18:51:52.469Z,15.51
2022-09-17T18:54:24.203Z,15.48
2022-09-17T18:56:51.217Z,15.45
2022-09-17T18:59:21.112Z,15.49
2022-09-17T19:01:49.099Z,15.54
2022-09-17T19:04:18.289Z,15.52
2022-09-17T19:06:47.527Z,15.58
2022-09-17T19:09:14.390Z,15.38
2022-09-17T19:11:41.310Z,15.57
2022-09-17T19:14:10.697Z,15.66
2022-09-17T19:16:40.096Z,15.47
2022-09-17T19:19:07.092Z,15.29
2022-09-17T19:21:33.908Z,15.34
2022-09-17T19:24:02.847Z,15.37
2022-09-17T19:26:32.981Z,15.33
2022-09-17T19:29:06.385Z,15.27
2022-09-17T19:31:33.474Z,15.23
2022-09-17T19:34:01.025Z,15.17
2022-09-17T19:36:28.033Z,15.27
2022-09-17T19:39:03.279Z,15.20
2022-09-17T19:41:36.108Z,15.05
2022-09-17T19:44:03.853Z,14.87
2022-09-17T19:46:32.396Z,14.88
2022-09-17T19:49:00.555Z,14.90
2022-09-17T19:51:31.999Z,15.14
2022-09-17T19:54:01.247Z,15.13
2022-09-17T19:56:33.014Z,15.24
2022-09-17T19:58:59.968Z,15.27
2022-09-17T20:01:27.299Z,15.08
2022-09-17T20:03:57.136Z,15.05
2022-09-17T20:06:27.212Z,15.10
2022-09-17T20:08:55.547Z,15.13
2022-09-17T20:11:26.565Z,15.35
2022-09-17T20:14:08.652Z,15.44
2022-09-17T20:16:38.540Z,15.48
2022-09-17T20:19:08.562Z,15.52
2022-09-17T20:21:38.090Z,15.61
2022-09-17T20:24:07.569Z,15.46
2022-09-17T20:26:35.292Z,15.59
2022-09-17T20:29:04.846Z,15.32
2022-09-17T20:31:35.271Z,15.24
2022-09-17T20:34:03.855Z,15.27
2022-09-17T20:36:34.191Z,15.30
2022-09-17T20:39:22.729Z,15.11
2022-09-17T20:41:52.080Z,15.37
2022-09-17T20:44:19.068Z,15.26
2022-09-17T20:46:48.394Z,15.20
2022-09-17T20:49:15.629Z,15.26
2022-09-17T20:51:42.599Z,15.15
2022-09-17T20:54:15.914Z,14.92
2022-09-17T20:56:46.514Z,14.93
2022-09-17T20:59:18.646Z,15.01
2022-09-17T21:01:50.299Z,14.99
2022-09-17T21:04:21.849Z,14.61
2022-09-17T21:06:54.213Z,14.62
2022-09-17T21:09:23.656Z,14.59
2022-09-17T21:11:50.622Z,14.56
2022-09-17T21:14:20.634Z,14.44
2022-09-17T21:16:48.530Z,14.64
2022-09-17T21:19:17.363Z,14.71
2022-09-17T21:21:44.751Z,14.63
2022-09-17T21:24:13.774Z,14.67
2022-09-17T21:26:40.725Z,14.59
2022-09-17T21:29:09.754Z,14.43
2022-09-17T21:31:37.685Z,14.48
2022-09-17T21:34:08.259Z,14.64
2022-09-17T21:36:40.798Z,14.41
2022-09-17T21:39:13.581Z,14.47
2022-09-17T21:41:42.791Z,14.35
2022-09-17T21:44:11.882Z,14.39
2022-09-17T21:46:40.543Z,14.41
2022-09-17T21:49:13.488Z,14.47
2022-09-17T21:51:43.429Z,14.42
2022-09-17T21:54:19.157Z,14.59
2022-09-17T21:56:46.848Z,14.53
2022-09-17T21:59:17.891Z,14.65
2022-09-17T22:01:50.432Z,14.54
2022-09-17T22:04:25.722Z,14.60
2022-09-17T22:06:55.581Z,14.65
2022-09-17T22:09:25.644Z,14.62
2022-09-17T22:11:53.374Z,14.74
2022-09-17T22:14:25.185Z,14.74
2022-09-17T22:16:56.808Z,14.52
2022-09-17T22:19:25.036Z,14.70
2022-09-17T22:21:54.857Z,14.72
2022-09-17T22:24:23.172Z,14.74
2022-09-17T22:26:57.822Z,14.79
2022-09-17T22:29:28.179Z,14.53
2022-09-17T22:31:57.431Z,14.42
2022-09-17T22:34:25.909Z,14.33
2022-09-17T22:36:52.925Z,14.36
2022-09-17T22:39:27.845Z,14.27
2022-09-17T22:41:54.692Z,14.32
2022-09-17T22:44:21.819Z,14.11
2022-09-17T22:46:51.605Z,14.03
2022-09-17T22:49:19.461Z,13.90
2022-09-17T22:51:51.281Z,13.89
2022-09-17T22:54:21.762Z,13.80
2022-09-17T22:56:49.224Z,13.67
2022-09-17T22:59:21.153Z,13.68
2022-09-17T23:01:48.244Z,13.64
2022-09-17T23:04:15.248Z,13.49
2022-09-17T23:06:45.304Z,13.54
2022-09-17T23:09:15.962Z,13.51
2022-09-17T23:11:45.845Z,13.47
2022-09-17T23:14:13.724Z,13.45
2022-09-17T23:16:44.885Z,13.58
2022-09-17T23:19:12.783Z,13.64
2022-09-17T23:21:40.243Z,13.77
2022-09-17T23:24:11.534Z,13.59
2022-09-17T23:26:43.492Z,13.49
2022-09-17T23:29:13.182Z,13.48
2022-09-17T23:31:40.746Z,13.23
2022-09-17T23:34:12.203Z,13.15
2022-09-17T23:36:40.164Z,13.22
2022-09-17T23:39:11.988Z,13.41
2022-09-17T23:41:43.567Z,13.27
2022-09-17T23:44:16.273Z,13.16
2022-09-17T23:46:46.420Z,13.22
2022-09-17T23:49:16.293Z,13.13
2022-09-17T23:51:43.866Z,13.16
2022-09-17T23:54:10.993Z,13.18
2022-09-17T23:56:39.090Z,13.18
2022-09-17T23:59:07.382Z,12.96
